sensor_id;sensor_type;location;lat;lon;timestamp;temperature;humidity
52889;DHT22;41413;52.770;6.892;2023-06-19T00:01:30;24.20;83.20
52889;DHT22;41413;52.770;6.892;2023-06-19T00:03:57;24.20;83.00
52889;DHT22;41413;52.770;6.892;2023-06-19T00:06:24;24.10;82.60
52889;DHT22;41413;52.770;6.892;2023-06-19T00:08:51;24.10;82.70
52889;DHT22;41413;52.770;6.892;2023-06-19T00:11:17;24.10;82.60
52889;DHT22;41413;52.770;6.892;2023-06-19T00:13:44;24.10;82.50
52889;DHT22;41413;52.770;6.892;2023-06-19T00:16:11;24.10;82.20
52889;DHT22;41413;52.770;6.892;2023-06-19T00:18:38;24.10;82.30
52889;DHT22;41413;52.770;6.892;2023-06-19T00:21:08;24.10;82.20
52889;DHT22;41413;52.770;6.892;2023-06-19T00:23:34;24.10;82.10
52889;DHT22;41413;52.770;6.892;2023-06-19T00:26:01;24.10;82.10
52889;DHT22;41413;52.770;6.892;2023-06-19T00:28:29;24.10;82.10
52889;DHT22;41413;52.770;6.892;2023-06-19T00:30:56;24.10;82.30
52889;DHT22;41413;52.770;6.892;2023-06-19T00:33:23;24.10;82.10
52889;DHT22;41413;52.770;6.892;2023-06-19T00:35:50;24.10;82.00
52889;DHT22;41413;52.770;6.892;2023-06-19T00:38:17;24.10;81.90
52889;DHT22;41413;52.770;6.892;2023-06-19T00:40:44;24.10;81.90
52889;DHT22;41413;52.770;6.892;2023-06-19T00:43:11;24.10;82.10
52889;DHT22;41413;52.770;6.892;2023-06-19T00:45:37;24.10;81.90
52889;DHT22;41413;52.770;6.892;2023-06-19T00:48:04;24.10;82.50
52889;DHT22;41413;52.770;6.892;2023-06-19T00:50:31;24.10;81.90
52889;DHT22;41413;52.770;6.892;2023-06-19T00:52:59;24.10;81.90
52889;DHT22;41413;52.770;6.892;2023-06-19T00:55:29;24.00;81.90
52889;DHT22;41413;52.770;6.892;2023-06-19T00:57:58;24.00;82.00
52889;DHT22;41413;52.770;6.892;2023-06-19T01:00:25;23.90;82.30
52889;DHT22;41413;52.770;6.892;2023-06-19T01:02:52;23.90;82.20
52889;DHT22;41413;52.770;6.892;2023-06-19T01:05:19;23.90;82.30
52889;DHT22;41413;52.770;6.892;2023-06-19T01:10:25;23.90;82.50
52889;DHT22;41413;52.770;6.892;2023-06-19T01:13:01;23.80;82.70
52889;DHT22;41413;52.770;6.892;2023-06-19T01:15:28;23.80;82.80
52889;DHT22;41413;52.770;6.892;2023-06-19T01:17:57;23.80;82.80
52889;DHT22;41413;52.770;6.892;2023-06-19T01:20:25;23.80;83.00
52889;DHT22;41413;52.770;6.892;2023-06-19T01:22:52;23.80;83.20
52889;DHT22;41413;52.770;6.892;2023-06-19T01:25:24;23.70;83.30
52889;DHT22;41413;52.770;6.892;2023-06-19T01:27:51;23.70;83.70
52889;DHT22;41413;52.770;6.892;2023-06-19T01:30:19;23.70;83.90
52889;DHT22;41413;52.770;6.892;2023-06-19T01:32:56;23.60;84.10
52889;DHT22;41413;52.770;6.892;2023-06-19T01:35:27;23.60;84.40
52889;DHT22;41413;52.770;6.892;2023-06-19T01:37:54;23.50;84.50
52889;DHT22;41413;52.770;6.892;2023-06-19T01:40:22;23.50;84.80
52889;DHT22;41413;52.770;6.892;2023-06-19T01:42:53;23.50;85.10
52889;DHT22;41413;52.770;6.892;2023-06-19T01:45:20;23.40;85.30
52889;DHT22;41413;52.770;6.892;2023-06-19T01:47:47;23.30;85.60
52889;DHT22;41413;52.770;6.892;2023-06-19T01:50:14;23.30;85.70
52889;DHT22;41413;52.770;6.892;2023-06-19T01:52:41;23.30;85.80
52889;DHT22;41413;52.770;6.892;2023-06-19T01:55:08;23.30;85.80
52889;DHT22;41413;52.770;6.892;2023-06-19T01:57:35;23.20;86.20
52889;DHT22;41413;52.770;6.892;2023-06-19T02:00:04;23.20;86.50
52889;DHT22;41413;52.770;6.892;2023-06-19T02:02:34;23.20;86.60
52889;DHT22;41413;52.770;6.892;2023-06-19T02:05:01;23.10;87.00
52889;DHT22;41413;52.770;6.892;2023-06-19T02:07:27;23.10;86.90
52889;DHT22;41413;52.770;6.892;2023-06-19T02:09:54;23.10;87.00
52889;DHT22;41413;52.770;6.892;2023-06-19T02:12:21;23.00;87.30
52889;DHT22;41413;52.770;6.892;2023-06-19T02:14:48;23.00;87.40
52889;DHT22;41413;52.770;6.892;2023-06-19T02:17:15;22.90;87.60
52889;DHT22;41413;52.770;6.892;2023-06-19T02:19:41;23.00;88.00
52889;DHT22;41413;52.770;6.892;2023-06-19T02:22:09;23.00;87.80
52889;DHT22;41413;52.770;6.892;2023-06-19T02:24:35;22.90;88.30
52889;DHT22;41413;52.770;6.892;2023-06-19T02:27:04;22.90;88.30
52889;DHT22;41413;52.770;6.892;2023-06-19T02:29:31;22.90;88.20
52889;DHT22;41413;52.770;6.892;2023-06-19T02:32:01;22.90;88.50
52889;DHT22;41413;52.770;6.892;2023-06-19T02:34:27;22.80;88.40
52889;DHT22;41413;52.770;6.892;2023-06-19T02:36:54;22.80;88.70
52889;DHT22;41413;52.770;6.892;2023-06-19T02:39:21;22.90;88.60
52889;DHT22;41413;52.770;6.892;2023-06-19T02:41:48;22.90;89.40
52889;DHT22;41413;52.770;6.892;2023-06-19T02:44:14;22.80;89.20
52889;DHT22;41413;52.770;6.892;2023-06-19T02:46:41;22.90;89.60
52889;DHT22;41413;52.770;6.892;2023-06-19T02:49:08;22.80;89.80
52889;DHT22;41413;52.770;6.892;2023-06-19T02:51:35;22.80;90.00
52889;DHT22;41413;52.770;6.892;2023-06-19T02:54:01;22.70;90.20
52889;DHT22;41413;52.770;6.892;2023-06-19T02:56:28;22.70;90.20
52889;DHT22;41413;52.770;6.892;2023-06-19T02:58:55;22.70;90.60
52889;DHT22;41413;52.770;6.892;2023-06-19T03:01:22;22.70;90.80
52889;DHT22;41413;52.770;6.892;2023-06-19T03:03:48;22.70;90.70
52889;DHT22;41413;52.770;6.892;2023-06-19T03:06:15;22.70;91.00
52889;DHT22;41413;52.770;6.892;2023-06-19T03:08:42;22.70;90.90
52889;DHT22;41413;52.770;6.892;2023-06-19T03:11:09;22.70;90.90
52889;DHT22;41413;52.770;6.892;2023-06-19T03:13:56;22.70;91.10
52889;DHT22;41413;52.770;6.892;2023-06-19T03:16:23;22.70;91.40
52889;DHT22;41413;52.770;6.892;2023-06-19T03:18:50;22.70;91.40
52889;DHT22;41413;52.770;6.892;2023-06-19T03:21:19;22.70;91.30
52889;DHT22;41413;52.770;6.892;2023-06-19T03:23:46;22.70;91.40
52889;DHT22;41413;52.770;6.892;2023-06-19T03:26:13;22.80;91.50
52889;DHT22;41413;52.770;6.892;2023-06-19T03:28:40;22.80;91.50
52889;DHT22;41413;52.770;6.892;2023-06-19T03:31:07;22.80;91.60
52889;DHT22;41413;52.770;6.892;2023-06-19T03:33:34;22.70;91.70
52889;DHT22;41413;52.770;6.892;2023-06-19T03:36:00;22.70;91.90
52889;DHT22;41413;52.770;6.892;2023-06-19T03:38:27;22.70;92.00
52889;DHT22;41413;52.770;6.892;2023-06-19T03:40:54;22.70;92.00
52889;DHT22;41413;52.770;6.892;2023-06-19T03:43:20;22.70;92.20
52889;DHT22;41413;52.770;6.892;2023-06-19T03:45:47;22.60;92.30
52889;DHT22;41413;52.770;6.892;2023-06-19T03:48:15;22.60;92.30
52889;DHT22;41413;52.770;6.892;2023-06-19T03:50:42;22.60;92.40
52889;DHT22;41413;52.770;6.892;2023-06-19T03:53:09;22.60;92.80
52889;DHT22;41413;52.770;6.892;2023-06-19T03:55:35;22.60;92.60
52889;DHT22;41413;52.770;6.892;2023-06-19T03:58:02;22.60;92.70
52889;DHT22;41413;52.770;6.892;2023-06-19T04:00:29;22.60;93.00
52889;DHT22;41413;52.770;6.892;2023-06-19T04:02:56;22.50;93.10
52889;DHT22;41413;52.770;6.892;2023-06-19T04:05:23;22.50;93.00
52889;DHT22;41413;52.770;6.892;2023-06-19T04:07:50;22.60;93.10
52889;DHT22;41413;52.770;6.892;2023-06-19T04:10:16;22.50;93.20
52889;DHT22;41413;52.770;6.892;2023-06-19T04:12:43;22.50;93.40
52889;DHT22;41413;52.770;6.892;2023-06-19T04:15:11;22.50;93.50
52889;DHT22;41413;52.770;6.892;2023-06-19T04:17:38;22.50;93.40
52889;DHT22;41413;52.770;6.892;2023-06-19T04:20:05;22.50;93.50
52889;DHT22;41413;52.770;6.892;2023-06-19T04:22:39;22.50;93.60
52889;DHT22;41413;52.770;6.892;2023-06-19T04:25:09;22.50;93.80
52889;DHT22;41413;52.770;6.892;2023-06-19T04:27:39;22.40;93.80
52889;DHT22;41413;52.770;6.892;2023-06-19T04:30:06;22.40;94.00
52889;DHT22;41413;52.770;6.892;2023-06-19T04:32:34;22.30;94.10
52889;DHT22;41413;52.770;6.892;2023-06-19T04:35:09;22.30;94.30
52889;DHT22;41413;52.770;6.892;2023-06-19T04:37:36;22.30;94.30
52889;DHT22;41413;52.770;6.892;2023-06-19T04:40:03;22.20;94.40
52889;DHT22;41413;52.770;6.892;2023-06-19T04:42:31;22.20;94.60
52889;DHT22;41413;52.770;6.892;2023-06-19T04:44:58;22.20;94.50
52889;DHT22;41413;52.770;6.892;2023-06-19T04:47:26;22.10;94.80
52889;DHT22;41413;52.770;6.892;2023-06-19T04:50:09;22.20;94.70
52889;DHT22;41413;52.770;6.892;2023-06-19T04:52:36;22.20;94.90
52889;DHT22;41413;52.770;6.892;2023-06-19T04:55:07;22.20;94.70
52889;DHT22;41413;52.770;6.892;2023-06-19T04:57:36;22.30;94.90
52889;DHT22;41413;52.770;6.892;2023-06-19T05:00:05;22.30;95.00
52889;DHT22;41413;52.770;6.892;2023-06-19T05:02:37;22.20;95.20
52889;DHT22;41413;52.770;6.892;2023-06-19T05:05:04;22.20;95.30
52889;DHT22;41413;52.770;6.892;2023-06-19T05:07:31;22.30;95.20
52889;DHT22;41413;52.770;6.892;2023-06-19T05:09:58;22.30;95.20
52889;DHT22;41413;52.770;6.892;2023-06-19T05:12:25;22.30;95.60
52889;DHT22;41413;52.770;6.892;2023-06-19T05:14:52;22.20;95.80
52889;DHT22;41413;52.770;6.892;2023-06-19T05:17:19;22.20;95.90
52889;DHT22;41413;52.770;6.892;2023-06-19T05:19:46;22.20;96.50
52889;DHT22;41413;52.770;6.892;2023-06-19T05:22:13;21.90;97.20
52889;DHT22;41413;52.770;6.892;2023-06-19T05:24:40;21.90;97.10
52889;DHT22;41413;52.770;6.892;2023-06-19T05:27:07;22.10;97.30
52889;DHT22;41413;52.770;6.892;2023-06-19T05:29:34;21.90;97.40
52889;DHT22;41413;52.770;6.892;2023-06-19T05:32:00;21.80;98.00
52889;DHT22;41413;52.770;6.892;2023-06-19T05:34:27;21.80;98.60
52889;DHT22;41413;52.770;6.892;2023-06-19T05:36:54;21.70;98.60
52889;DHT22;41413;52.770;6.892;2023-06-19T05:39:21;21.60;99.10
52889;DHT22;41413;52.770;6.892;2023-06-19T05:41:48;21.60;99.40
52889;DHT22;41413;52.770;6.892;2023-06-19T05:44:15;21.60;99.90
52889;DHT22;41413;52.770;6.892;2023-06-19T05:46:43;21.60;99.90
52889;DHT22;41413;52.770;6.892;2023-06-19T05:49:10;21.60;99.90
52889;DHT22;41413;52.770;6.892;2023-06-19T05:51:37;21.60;99.90
52889;DHT22;41413;52.770;6.892;2023-06-19T05:54:04;21.60;99.90
52889;DHT22;41413;52.770;6.892;2023-06-19T05:56:31;21.60;99.90
52889;DHT22;41413;52.770;6.892;2023-06-19T05:59:00;21.60;99.90
52889;DHT22;41413;52.770;6.892;2023-06-19T06:01:29;21.70;99.90
52889;DHT22;41413;52.770;6.892;2023-06-19T06:03:56;21.70;99.90
52889;DHT22;41413;52.770;6.892;2023-06-19T06:06:23;21.60;99.90
52889;DHT22;41413;52.770;6.892;2023-06-19T06:08:50;21.70;99.90
52889;DHT22;41413;52.770;6.892;2023-06-19T06:11:22;21.70;99.90
52889;DHT22;41413;52.770;6.892;2023-06-19T06:13:48;21.60;99.90
52889;DHT22;41413;52.770;6.892;2023-06-19T06:16:15;21.70;99.90
52889;DHT22;41413;52.770;6.892;2023-06-19T06:18:42;21.80;99.90
52889;DHT22;41413;52.770;6.892;2023-06-19T06:21:09;22.00;99.90
52889;DHT22;41413;52.770;6.892;2023-06-19T06:23:35;22.00;99.90
52889;DHT22;41413;52.770;6.892;2023-06-19T06:26:02;22.20;99.90
52889;DHT22;41413;52.770;6.892;2023-06-19T06:28:29;22.30;99.90
52889;DHT22;41413;52.770;6.892;2023-06-19T06:30:58;22.20;99.90
52889;DHT22;41413;52.770;6.892;2023-06-19T06:33:24;22.20;99.90
52889;DHT22;41413;52.770;6.892;2023-06-19T06:35:54;22.30;99.90
52889;DHT22;41413;52.770;6.892;2023-06-19T06:38:21;22.30;99.90
52889;DHT22;41413;52.770;6.892;2023-06-19T06:40:48;22.30;99.90
52889;DHT22;41413;52.770;6.892;2023-06-19T06:43:15;22.30;99.90
52889;DHT22;41413;52.770;6.892;2023-06-19T06:45:42;22.20;99.90
52889;DHT22;41413;52.770;6.892;2023-06-19T06:48:09;22.30;99.90
52889;DHT22;41413;52.770;6.892;2023-06-19T06:50:36;22.40;99.90
52889;DHT22;41413;52.770;6.892;2023-06-19T06:53:03;22.30;99.90
52889;DHT22;41413;52.770;6.892;2023-06-19T06:55:29;22.30;99.90
52889;DHT22;41413;52.770;6.892;2023-06-19T06:57:56;22.30;99.90
52889;DHT22;41413;52.770;6.892;2023-06-19T07:00:23;22.20;99.90
52889;DHT22;41413;52.770;6.892;2023-06-19T07:02:50;22.30;99.90
52889;DHT22;41413;52.770;6.892;2023-06-19T07:05:18;22.50;99.90
52889;DHT22;41413;52.770;6.892;2023-06-19T07:07:45;22.30;99.90
52889;DHT22;41413;52.770;6.892;2023-06-19T07:10:11;22.40;99.90
52889;DHT22;41413;52.770;6.892;2023-06-19T07:12:48;22.40;99.90
52889;DHT22;41413;52.770;6.892;2023-06-19T07:15:15;22.40;99.90
52889;DHT22;41413;52.770;6.892;2023-06-19T07:17:44;22.50;99.90
52889;DHT22;41413;52.770;6.892;2023-06-19T07:20:11;22.40;99.90
52889;DHT22;41413;52.770;6.892;2023-06-19T07:22:38;22.40;99.90
52889;DHT22;41413;52.770;6.892;2023-06-19T07:25:05;22.30;99.90
52889;DHT22;41413;52.770;6.892;2023-06-19T07:27:33;22.30;99.90
52889;DHT22;41413;52.770;6.892;2023-06-19T07:29:59;22.30;99.90
52889;DHT22;41413;52.770;6.892;2023-06-19T07:32:26;22.30;99.90
52889;DHT22;41413;52.770;6.892;2023-06-19T07:34:53;22.30;99.90
52889;DHT22;41413;52.770;6.892;2023-06-19T07:37:20;22.20;99.90
52889;DHT22;41413;52.770;6.892;2023-06-19T07:39:49;22.10;99.90
52889;DHT22;41413;52.770;6.892;2023-06-19T07:42:18;22.20;99.90
52889;DHT22;41413;52.770;6.892;2023-06-19T07:44:45;22.20;99.90
52889;DHT22;41413;52.770;6.892;2023-06-19T07:47:13;22.30;99.90
52889;DHT22;41413;52.770;6.892;2023-06-19T07:49:40;22.50;99.90
52889;DHT22;41413;52.770;6.892;2023-06-19T07:52:07;22.50;99.90
52889;DHT22;41413;52.770;6.892;2023-06-19T07:54:36;22.50;99.90
52889;DHT22;41413;52.770;6.892;2023-06-19T07:57:03;22.50;99.90
52889;DHT22;41413;52.770;6.892;2023-06-19T07:59:30;22.70;99.90
52889;DHT22;41413;52.770;6.892;2023-06-19T08:01:56;23.00;99.90
52889;DHT22;41413;52.770;6.892;2023-06-19T08:04:23;23.00;99.90
52889;DHT22;41413;52.770;6.892;2023-06-19T08:06:50;23.20;99.90
52889;DHT22;41413;52.770;6.892;2023-06-19T08:09:17;23.00;99.90
52889;DHT22;41413;52.770;6.892;2023-06-19T08:11:44;22.90;99.90
52889;DHT22;41413;52.770;6.892;2023-06-19T08:14:11;22.90;99.90
52889;DHT22;41413;52.770;6.892;2023-06-19T08:16:38;22.70;99.90
52889;DHT22;41413;52.770;6.892;2023-06-19T08:19:04;22.70;99.90
52889;DHT22;41413;52.770;6.892;2023-06-19T08:21:31;22.50;99.90
52889;DHT22;41413;52.770;6.892;2023-06-19T08:23:58;22.60;99.90
52889;DHT22;41413;52.770;6.892;2023-06-19T08:26:25;22.50;99.90
52889;DHT22;41413;52.770;6.892;2023-06-19T08:28:51;22.50;99.90
52889;DHT22;41413;52.770;6.892;2023-06-19T08:31:18;22.50;99.90
52889;DHT22;41413;52.770;6.892;2023-06-19T08:33:47;22.40;99.90
52889;DHT22;41413;52.770;6.892;2023-06-19T08:36:17;22.50;99.90
52889;DHT22;41413;52.770;6.892;2023-06-19T08:38:44;22.50;99.90
52889;DHT22;41413;52.770;6.892;2023-06-19T08:41:11;22.60;99.90
52889;DHT22;41413;52.770;6.892;2023-06-19T08:43:37;22.40;99.90
52889;DHT22;41413;52.770;6.892;2023-06-19T08:46:10;22.40;99.90
52889;DHT22;41413;52.770;6.892;2023-06-19T08:48:38;22.50;99.90
52889;DHT22;41413;52.770;6.892;2023-06-19T08:51:05;22.70;99.90
52889;DHT22;41413;52.770;6.892;2023-06-19T08:53:46;22.50;99.90
52889;DHT22;41413;52.770;6.892;2023-06-19T08:56:13;22.50;99.90
52889;DHT22;41413;52.770;6.892;2023-06-19T08:58:40;22.50;99.90
52889;DHT22;41413;52.770;6.892;2023-06-19T09:01:07;22.50;99.90
52889;DHT22;41413;52.770;6.892;2023-06-19T09:03:34;22.40;99.90
52889;DHT22;41413;52.770;6.892;2023-06-19T09:06:06;22.30;99.90
52889;DHT22;41413;52.770;6.892;2023-06-19T09:08:34;22.30;99.90
52889;DHT22;41413;52.770;6.892;2023-06-19T09:11:04;22.30;99.90
52889;DHT22;41413;52.770;6.892;2023-06-19T09:13:33;22.20;99.90
52889;DHT22;41413;52.770;6.892;2023-06-19T09:16:05;22.10;99.90
52889;DHT22;41413;52.770;6.892;2023-06-19T09:18:44;22.00;99.90
52889;DHT22;41413;52.770;6.892;2023-06-19T09:21:19;21.90;99.90
52889;DHT22;41413;52.770;6.892;2023-06-19T09:23:48;21.80;99.90
52889;DHT22;41413;52.770;6.892;2023-06-19T09:26:17;21.90;99.90
52889;DHT22;41413;52.770;6.892;2023-06-19T09:28:45;21.70;99.90
52889;DHT22;41413;52.770;6.892;2023-06-19T09:31:13;21.90;99.90
52889;DHT22;41413;52.770;6.892;2023-06-19T09:33:40;21.90;99.90
52889;DHT22;41413;52.770;6.892;2023-06-19T09:36:07;22.10;99.90
52889;DHT22;41413;52.770;6.892;2023-06-19T09:38:36;22.20;99.90
52889;DHT22;41413;52.770;6.892;2023-06-19T09:41:05;22.30;99.90
52889;DHT22;41413;52.770;6.892;2023-06-19T09:43:41;22.50;99.90
52889;DHT22;41413;52.770;6.892;2023-06-19T09:46:10;23.30;99.90
52889;DHT22;41413;52.770;6.892;2023-06-19T09:48:42;23.30;99.90
52889;DHT22;41413;52.770;6.892;2023-06-19T09:53:48;23.60;99.90
52889;DHT22;41413;52.770;6.892;2023-06-19T09:56:16;24.00;99.90
52889;DHT22;41413;52.770;6.892;2023-06-19T09:58:51;24.70;99.90
52889;DHT22;41413;52.770;6.892;2023-06-19T10:01:18;25.40;99.00
52889;DHT22;41413;52.770;6.892;2023-06-19T10:03:45;25.40;98.10
52889;DHT22;41413;52.770;6.892;2023-06-19T10:06:16;25.70;97.00
52889;DHT22;41413;52.770;6.892;2023-06-19T10:08:44;25.50;96.30
52889;DHT22;41413;52.770;6.892;2023-06-19T10:11:12;25.50;95.80
52889;DHT22;41413;52.770;6.892;2023-06-19T10:13:42;25.00;95.80
52889;DHT22;41413;52.770;6.892;2023-06-19T10:16:23;25.40;95.70
52889;DHT22;41413;52.770;6.892;2023-06-19T10:18:53;25.60;95.30
52889;DHT22;41413;52.770;6.892;2023-06-19T10:21:21;25.70;95.10
52889;DHT22;41413;52.770;6.892;2023-06-19T10:23:55;25.70;94.70
52889;DHT22;41413;52.770;6.892;2023-06-19T10:26:33;25.90;94.80
52889;DHT22;41413;52.770;6.892;2023-06-19T10:29:01;26.10;95.20
52889;DHT22;41413;52.770;6.892;2023-06-19T10:31:28;26.20;94.80
52889;DHT22;41413;52.770;6.892;2023-06-19T10:33:55;26.30;94.20
52889;DHT22;41413;52.770;6.892;2023-06-19T10:36:23;26.20;94.00
52889;DHT22;41413;52.770;6.892;2023-06-19T10:38:52;26.70;94.10
52889;DHT22;41413;52.770;6.892;2023-06-19T10:41:21;27.00;94.00
52889;DHT22;41413;52.770;6.892;2023-06-19T10:44:05;27.00;92.90
52889;DHT22;41413;52.770;6.892;2023-06-19T10:46:33;27.10;93.10
52889;DHT22;41413;52.770;6.892;2023-06-19T10:49:01;27.10;92.80
52889;DHT22;41413;52.770;6.892;2023-06-19T10:51:41;27.10;93.30
52889;DHT22;41413;52.770;6.892;2023-06-19T10:54:10;26.90;92.80
52889;DHT22;41413;52.770;6.892;2023-06-19T10:56:37;26.90;92.80
52889;DHT22;41413;52.770;6.892;2023-06-19T10:59:07;26.50;92.80
52889;DHT22;41413;52.770;6.892;2023-06-19T11:01:37;26.30;93.20
52889;DHT22;41413;52.770;6.892;2023-06-19T11:04:15;26.90;93.30
52889;DHT22;41413;52.770;6.892;2023-06-19T11:06:43;27.10;92.90
52889;DHT22;41413;52.770;6.892;2023-06-19T11:09:12;27.30;92.50
52889;DHT22;41413;52.770;6.892;2023-06-19T11:11:45;27.40;92.40
52889;DHT22;41413;52.770;6.892;2023-06-19T11:14:12;27.50;92.10
52889;DHT22;41413;52.770;6.892;2023-06-19T11:16:42;27.70;92.30
52889;DHT22;41413;52.770;6.892;2023-06-19T11:19:17;27.70;91.50
52889;DHT22;41413;52.770;6.892;2023-06-19T11:21:51;27.30;91.80
52889;DHT22;41413;52.770;6.892;2023-06-19T11:24:19;27.40;91.90
52889;DHT22;41413;52.770;6.892;2023-06-19T11:26:49;27.70;91.90
52889;DHT22;41413;52.770;6.892;2023-06-19T11:29:19;27.80;91.70
52889;DHT22;41413;52.770;6.892;2023-06-19T11:31:47;28.00;91.20
52889;DHT22;41413;52.770;6.892;2023-06-19T11:34:15;27.50;91.30
52889;DHT22;41413;52.770;6.892;2023-06-19T11:36:43;27.90;91.20
52889;DHT22;41413;52.770;6.892;2023-06-19T11:39:14;28.30;91.10
52889;DHT22;41413;52.770;6.892;2023-06-19T11:41:43;28.60;90.70
52889;DHT22;41413;52.770;6.892;2023-06-19T11:44:11;28.60;90.20
52889;DHT22;41413;52.770;6.892;2023-06-19T11:46:38;28.60;90.20
52889;DHT22;41413;52.770;6.892;2023-06-19T11:49:12;28.20;89.90
52889;DHT22;41413;52.770;6.892;2023-06-19T11:51:39;28.00;90.00
52889;DHT22;41413;52.770;6.892;2023-06-19T11:54:07;28.10;89.40
52889;DHT22;41413;52.770;6.892;2023-06-19T11:56:36;28.60;89.90
52889;DHT22;41413;52.770;6.892;2023-06-19T11:59:02;28.60;90.00
52889;DHT22;41413;52.770;6.892;2023-06-19T12:01:34;28.70;88.30
52889;DHT22;41413;52.770;6.892;2023-06-19T12:04:02;27.80;88.10
52889;DHT22;41413;52.770;6.892;2023-06-19T12:06:30;28.10;89.80
52889;DHT22;41413;52.770;6.892;2023-06-19T12:08:57;28.60;89.10
52889;DHT22;41413;52.770;6.892;2023-06-19T12:11:23;28.70;89.00
52889;DHT22;41413;52.770;6.892;2023-06-19T12:13:51;28.40;88.30
52889;DHT22;41413;52.770;6.892;2023-06-19T12:16:20;28.40;88.90
52889;DHT22;41413;52.770;6.892;2023-06-19T12:18:47;28.60;88.00
52889;DHT22;41413;52.770;6.892;2023-06-19T12:21:13;28.10;88.80
52889;DHT22;41413;52.770;6.892;2023-06-19T12:24:00;28.10;88.10
52889;DHT22;41413;52.770;6.892;2023-06-19T12:26:26;27.40;88.30
52889;DHT22;41413;52.770;6.892;2023-06-19T12:28:53;27.80;88.80
52889;DHT22;41413;52.770;6.892;2023-06-19T12:31:20;27.90;88.60
52889;DHT22;41413;52.770;6.892;2023-06-19T12:33:47;27.40;89.10
52889;DHT22;41413;52.770;6.892;2023-06-19T12:36:15;27.90;89.50
52889;DHT22;41413;52.770;6.892;2023-06-19T12:38:42;28.20;89.50
52889;DHT22;41413;52.770;6.892;2023-06-19T12:41:09;28.10;89.30
52889;DHT22;41413;52.770;6.892;2023-06-19T12:43:36;28.00;89.20
52889;DHT22;41413;52.770;6.892;2023-06-19T12:46:03;27.70;89.80
52889;DHT22;41413;52.770;6.892;2023-06-19T12:48:30;27.80;90.00
52889;DHT22;41413;52.770;6.892;2023-06-19T12:50:56;27.80;90.00
52889;DHT22;41413;52.770;6.892;2023-06-19T12:53:23;27.20;89.90
52889;DHT22;41413;52.770;6.892;2023-06-19T12:55:53;27.30;90.20
52889;DHT22;41413;52.770;6.892;2023-06-19T12:58:29;27.50;90.00
52889;DHT22;41413;52.770;6.892;2023-06-19T13:00:56;27.60;89.80
52889;DHT22;41413;52.770;6.892;2023-06-19T13:03:22;26.90;89.00
52889;DHT22;41413;52.770;6.892;2023-06-19T13:05:50;27.30;90.00
52889;DHT22;41413;52.770;6.892;2023-06-19T13:08:16;27.20;89.10
52889;DHT22;41413;52.770;6.892;2023-06-19T13:10:43;27.80;89.50
52889;DHT22;41413;52.770;6.892;2023-06-19T13:13:11;27.80;89.50
52889;DHT22;41413;52.770;6.892;2023-06-19T13:15:37;27.90;89.20
52889;DHT22;41413;52.770;6.892;2023-06-19T13:18:04;27.70;88.60
52889;DHT22;41413;52.770;6.892;2023-06-19T13:20:31;27.00;89.80
52889;DHT22;41413;52.770;6.892;2023-06-19T13:22:58;27.20;89.80
52889;DHT22;41413;52.770;6.892;2023-06-19T13:25:25;27.40;90.20
52889;DHT22;41413;52.770;6.892;2023-06-19T13:27:52;27.40;90.00
52889;DHT22;41413;52.770;6.892;2023-06-19T13:30:18;27.50;90.00
52889;DHT22;41413;52.770;6.892;2023-06-19T13:32:45;27.40;88.80
52889;DHT22;41413;52.770;6.892;2023-06-19T13:35:12;27.60;89.60
52889;DHT22;41413;52.770;6.892;2023-06-19T13:37:39;27.50;89.50
52889;DHT22;41413;52.770;6.892;2023-06-19T13:40:06;28.10;89.10
52889;DHT22;41413;52.770;6.892;2023-06-19T13:42:34;28.10;88.00
52889;DHT22;41413;52.770;6.892;2023-06-19T13:45:05;28.10;88.00
52889;DHT22;41413;52.770;6.892;2023-06-19T13:47:32;28.40;87.70
52889;DHT22;41413;52.770;6.892;2023-06-19T13:49:59;28.10;87.40
52889;DHT22;41413;52.770;6.892;2023-06-19T13:52:27;28.10;87.30
52889;DHT22;41413;52.770;6.892;2023-06-19T13:54:54;27.60;87.20
52889;DHT22;41413;52.770;6.892;2023-06-19T13:57:21;27.20;87.90
52889;DHT22;41413;52.770;6.892;2023-06-19T13:59:48;27.50;88.30
52889;DHT22;41413;52.770;6.892;2023-06-19T14:02:15;27.80;88.10
52889;DHT22;41413;52.770;6.892;2023-06-19T14:04:42;27.80;88.20
52889;DHT22;41413;52.770;6.892;2023-06-19T14:07:09;27.70;88.20
52889;DHT22;41413;52.770;6.892;2023-06-19T14:09:36;27.80;88.70
52889;DHT22;41413;52.770;6.892;2023-06-19T14:12:03;27.60;88.80
52889;DHT22;41413;52.770;6.892;2023-06-19T14:14:29;27.60;88.70
52889;DHT22;41413;52.770;6.892;2023-06-19T14:16:56;27.80;89.00
52889;DHT22;41413;52.770;6.892;2023-06-19T14:19:25;27.90;89.00
52889;DHT22;41413;52.770;6.892;2023-06-19T14:21:51;28.20;88.60
52889;DHT22;41413;52.770;6.892;2023-06-19T14:24:18;28.20;87.80
52889;DHT22;41413;52.770;6.892;2023-06-19T14:26:45;27.90;87.50
52889;DHT22;41413;52.770;6.892;2023-06-19T14:29:12;28.00;87.90
52889;DHT22;41413;52.770;6.892;2023-06-19T14:31:41;28.10;87.50
52889;DHT22;41413;52.770;6.892;2023-06-19T14:34:08;28.00;86.90
52889;DHT22;41413;52.770;6.892;2023-06-19T14:36:37;28.00;87.00
52889;DHT22;41413;52.770;6.892;2023-06-19T14:39:04;27.70;87.00
52889;DHT22;41413;52.770;6.892;2023-06-19T14:41:31;27.90;87.00
52889;DHT22;41413;52.770;6.892;2023-06-19T14:43:57;28.10;86.60
52889;DHT22;41413;52.770;6.892;2023-06-19T14:46:24;28.10;86.60
52889;DHT22;41413;52.770;6.892;2023-06-19T14:49:06;28.10;86.10
52889;DHT22;41413;52.770;6.892;2023-06-19T14:51:33;27.80;86.10
52889;DHT22;41413;52.770;6.892;2023-06-19T14:54:00;27.80;86.80
52889;DHT22;41413;52.770;6.892;2023-06-19T14:56:26;27.90;85.80
52889;DHT22;41413;52.770;6.892;2023-06-19T14:58:53;28.00;86.60
52889;DHT22;41413;52.770;6.892;2023-06-19T15:01:20;28.10;86.30
52889;DHT22;41413;52.770;6.892;2023-06-19T15:03:47;28.10;86.70
52889;DHT22;41413;52.770;6.892;2023-06-19T15:06:14;28.10;86.30
52889;DHT22;41413;52.770;6.892;2023-06-19T15:08:41;28.00;86.20
52889;DHT22;41413;52.770;6.892;2023-06-19T15:11:07;27.70;86.40
52889;DHT22;41413;52.770;6.892;2023-06-19T15:13:34;27.60;86.60
52889;DHT22;41413;52.770;6.892;2023-06-19T15:16:01;27.50;86.50
52889;DHT22;41413;52.770;6.892;2023-06-19T15:18:29;27.40;85.90
52889;DHT22;41413;52.770;6.892;2023-06-19T15:20:55;27.70;86.20
52889;DHT22;41413;52.770;6.892;2023-06-19T15:23:24;27.70;86.10
52889;DHT22;41413;52.770;6.892;2023-06-19T15:25:50;27.90;85.70
52889;DHT22;41413;52.770;6.892;2023-06-19T15:28:18;28.00;85.20
52889;DHT22;41413;52.770;6.892;2023-06-19T15:30:45;27.70;84.90
52889;DHT22;41413;52.770;6.892;2023-06-19T15:33:12;27.80;84.80
52889;DHT22;41413;52.770;6.892;2023-06-19T15:35:41;27.80;85.00
52889;DHT22;41413;52.770;6.892;2023-06-19T15:38:08;27.80;83.80
52889;DHT22;41413;52.770;6.892;2023-06-19T15:40:34;27.70;83.40